sensor_id;sensor_type;location;lat;lon;timestamp;P1;durP1;ratioP1;P2;durP2;ratioP2
55609;SDS011;41486;52.502;13.486;2023-04-06T00:02:22;6.97;;;4.32;;
55609;SDS011;41486;52.502;13.486;2023-04-06T00:04:51;7.95;;;5.05;;
55609;SDS011;41486;52.502;13.486;2023-04-06T00:07:19;5.00;;;4.45;;
55609;SDS011;41486;52.502;13.486;2023-04-06T00:09:47;7.40;;;4.82;;
55609;SDS011;41486;52.502;13.486;2023-04-06T00:12:16;5.35;;;4.15;;
55609;SDS011;41486;52.502;13.486;2023-04-06T00:14:45;10.43;;;5.25;;
55609;SDS011;41486;52.502;13.486;2023-04-06T00:17:13;7.43;;;4.60;;
55609;SDS011;41486;52.502;13.486;2023-04-06T00:19:41;7.05;;;4.93;;
55609;SDS011;41486;52.502;13.486;2023-04-06T00:22:09;5.93;;;4.45;;
55609;SDS011;41486;52.502;13.486;2023-04-06T00:24:37;7.22;;;4.55;;
55609;SDS011;41486;52.502;13.486;2023-04-06T00:27:05;13.38;;;5.88;;
55609;SDS011;41486;52.502;13.486;2023-04-06T00:29:33;6.32;;;4.63;;
55609;SDS011;41486;52.502;13.486;2023-04-06T00:32:03;7.05;;;4.85;;
55609;SDS011;41486;52.502;13.486;2023-04-06T00:34:32;7.22;;;4.25;;
55609;SDS011;41486;52.502;13.486;2023-04-06T00:37:00;6.22;;;4.50;;
55609;SDS011;41486;52.502;13.486;2023-04-06T00:39:28;5.70;;;4.55;;
55609;SDS011;41486;52.502;13.486;2023-04-06T00:41:56;5.20;;;4.70;;
55609;SDS011;41486;52.502;13.486;2023-04-06T00:44:24;6.75;;;4.68;;
55609;SDS011;41486;52.502;13.486;2023-04-06T00:46:52;7.55;;;4.75;;
55609;SDS011;41486;52.502;13.486;2023-04-06T00:49:24;5.90;;;4.32;;
55609;SDS011;41486;52.502;13.486;2023-04-06T00:51:52;8.95;;;4.78;;
55609;SDS011;41486;52.502;13.486;2023-04-06T00:54:21;6.28;;;4.63;;
55609;SDS011;41486;52.502;13.486;2023-04-06T00:56:49;6.30;;;4.57;;
55609;SDS011;41486;52.502;13.486;2023-04-06T00:59:17;4.88;;;4.22;;
55609;SDS011;41486;52.502;13.486;2023-04-06T01:01:46;6.28;;;4.25;;
55609;SDS011;41486;52.502;13.486;2023-04-06T01:04:32;5.15;;;4.25;;
55609;SDS011;41486;52.502;13.486;2023-04-06T01:07:02;5.32;;;4.10;;
55609;SDS011;41486;52.502;13.486;2023-04-06T01:09:39;6.88;;;4.32;;
55609;SDS011;41486;52.502;13.486;2023-04-06T01:12:15;6.20;;;4.00;;
55609;SDS011;41486;52.502;13.486;2023-04-06T01:14:44;6.43;;;4.45;;
55609;SDS011;41486;52.502;13.486;2023-04-06T01:17:12;5.72;;;4.47;;
55609;SDS011;41486;52.502;13.486;2023-04-06T01:19:42;8.18;;;4.78;;
55609;SDS011;41486;52.502;13.486;2023-04-06T01:22:21;5.80;;;4.65;;
55609;SDS011;41486;52.502;13.486;2023-04-06T01:24:55;4.65;;;3.72;;
55609;SDS011;41486;52.502;13.486;2023-04-06T01:27:32;5.80;;;3.95;;
55609;SDS011;41486;52.502;13.486;2023-04-06T01:30:19;6.85;;;4.28;;
55609;SDS011;41486;52.502;13.486;2023-04-06T01:32:51;6.85;;;4.53;;
55609;SDS011;41486;52.502;13.486;2023-04-06T01:35:31;4.97;;;3.95;;
55609;SDS011;41486;52.502;13.486;2023-04-06T01:38:13;6.20;;;4.32;;
55609;SDS011;41486;52.502;13.486;2023-04-06T01:40:42;6.40;;;4.10;;
55609;SDS011;41486;52.502;13.486;2023-04-06T01:43:11;6.53;;;3.90;;
55609;SDS011;41486;52.502;13.486;2023-04-06T01:45:59;7.00;;;4.28;;
55609;SDS011;41486;52.502;13.486;2023-04-06T01:48:32;6.53;;;4.25;;
55609;SDS011;41486;52.502;13.486;2023-04-06T01:51:08;5.57;;;3.92;;
55609;SDS011;41486;52.502;13.486;2023-04-06T01:53:46;6.05;;;4.57;;
55609;SDS011;41486;52.502;13.486;2023-04-06T01:56:16;6.82;;;4.30;;
55609;SDS011;41486;52.502;13.486;2023-04-06T01:58:53;5.47;;;3.97;;
55609;SDS011;41486;52.502;13.486;2023-04-06T02:01:21;14.65;;;5.13;;
55609;SDS011;41486;52.502;13.486;2023-04-06T02:03:54;9.20;;;4.82;;
55609;SDS011;41486;52.502;13.486;2023-04-06T02:06:22;5.95;;;4.05;;
55609;SDS011;41486;52.502;13.486;2023-04-06T02:08:52;5.95;;;4.18;;
55609;SDS011;41486;52.502;13.486;2023-04-06T02:11:21;6.72;;;4.55;;
55609;SDS011;41486;52.502;13.486;2023-04-06T02:13:53;7.40;;;4.55;;
55609;SDS011;41486;52.502;13.486;2023-04-06T02:16:25;5.25;;;4.47;;
55609;SDS011;41486;52.502;13.486;2023-04-06T02:18:53;6.88;;;4.50;;
55609;SDS011;41486;52.502;13.486;2023-04-06T02:21:22;4.70;;;3.90;;
55609;SDS011;41486;52.502;13.486;2023-04-06T02:23:50;5.93;;;4.60;;
55609;SDS011;41486;52.502;13.486;2023-04-06T02:26:19;5.93;;;3.70;;
55609;SDS011;41486;52.502;13.486;2023-04-06T02:28:48;6.07;;;4.25;;
55609;SDS011;41486;52.502;13.486;2023-04-06T02:31:16;7.22;;;3.88;;
55609;SDS011;41486;52.502;13.486;2023-04-06T02:33:44;5.78;;;4.45;;
55609;SDS011;41486;52.502;13.486;2023-04-06T02:36:14;5.28;;;3.92;;
55609;SDS011;41486;52.502;13.486;2023-04-06T02:38:42;6.93;;;4.28;;
55609;SDS011;41486;52.502;13.486;2023-04-06T02:41:11;5.30;;;4.18;;
55609;SDS011;41486;52.502;13.486;2023-04-06T02:43:40;7.35;;;4.38;;
55609;SDS011;41486;52.502;13.486;2023-04-06T02:46:20;7.22;;;4.95;;
55609;SDS011;41486;52.502;13.486;2023-04-06T02:48:48;5.25;;;4.15;;
55609;SDS011;41486;52.502;13.486;2023-04-06T02:51:16;6.95;;;4.10;;
55609;SDS011;41486;52.502;13.486;2023-04-06T02:53:50;6.43;;;4.30;;
55609;SDS011;41486;52.502;13.486;2023-04-06T02:56:18;7.03;;;5.20;;
55609;SDS011;41486;52.502;13.486;2023-04-06T02:58:51;7.38;;;4.13;;
55609;SDS011;41486;52.502;13.486;2023-04-06T03:01:23;5.68;;;3.72;;
55609;SDS011;41486;52.502;13.486;2023-04-06T03:03:56;4.80;;;3.92;;
55609;SDS011;41486;52.502;13.486;2023-04-06T03:06:26;7.88;;;4.22;;
55609;SDS011;41486;52.502;13.486;2023-04-06T03:09:00;7.65;;;4.68;;
55609;SDS011;41486;52.502;13.486;2023-04-06T03:11:29;8.07;;;4.53;;
55609;SDS011;41486;52.502;13.486;2023-04-06T03:13:59;7.70;;;4.07;;
55609;SDS011;41486;52.502;13.486;2023-04-06T03:16:27;5.75;;;4.63;;
55609;SDS011;41486;52.502;13.486;2023-04-06T03:18:55;5.93;;;4.43;;
55609;SDS011;41486;52.502;13.486;2023-04-06T03:21:23;5.78;;;4.30;;
55609;SDS011;41486;52.502;13.486;2023-04-06T03:23:52;6.65;;;4.57;;
55609;SDS011;41486;52.502;13.486;2023-04-06T03:26:20;9.52;;;4.47;;
55609;SDS011;41486;52.502;13.486;2023-04-06T03:28:50;5.47;;;4.03;;
55609;SDS011;41486;52.502;13.486;2023-04-06T03:31:24;6.40;;;3.83;;
55609;SDS011;41486;52.502;13.486;2023-04-06T03:33:58;7.70;;;4.47;;
55609;SDS011;41486;52.502;13.486;2023-04-06T03:36:30;7.72;;;4.28;;
55609;SDS011;41486;52.502;13.486;2023-04-06T03:38:59;5.88;;;4.15;;
55609;SDS011;41486;52.502;13.486;2023-04-06T03:41:30;8.93;;;4.50;;
55609;SDS011;41486;52.502;13.486;2023-04-06T03:44:20;6.32;;;4.75;;
55609;SDS011;41486;52.502;13.486;2023-04-06T03:46:50;4.90;;;4.18;;
55609;SDS011;41486;52.502;13.486;2023-04-06T03:49:19;4.78;;;3.60;;
55609;SDS011;41486;52.502;13.486;2023-04-06T03:51:49;5.25;;;4.40;;
55609;SDS011;41486;52.502;13.486;2023-04-06T03:54:17;6.30;;;4.13;;
55609;SDS011;41486;52.502;13.486;2023-04-06T03:56:46;6.50;;;3.78;;
55609;SDS011;41486;52.502;13.486;2023-04-06T03:59:14;7.53;;;4.18;;
55609;SDS011;41486;52.502;13.486;2023-04-06T04:01:42;6.18;;;3.92;;
55609;SDS011;41486;52.502;13.486;2023-04-06T04:04:12;7.55;;;4.10;;
55609;SDS011;41486;52.502;13.486;2023-04-06T04:06:40;6.10;;;3.83;;
55609;SDS011;41486;52.502;13.486;2023-04-06T04:09:08;6.57;;;3.80;;
55609;SDS011;41486;52.502;13.486;2023-04-06T04:11:36;6.47;;;3.55;;
55609;SDS011;41486;52.502;13.486;2023-04-06T04:14:04;6.95;;;3.90;;
55609;SDS011;41486;52.502;13.486;2023-04-06T04:16:32;5.05;;;3.55;;
55609;SDS011;41486;52.502;13.486;2023-04-06T04:19:01;6.10;;;3.33;;
55609;SDS011;41486;52.502;13.486;2023-04-06T04:21:31;4.25;;;3.60;;
55609;SDS011;41486;52.502;13.486;2023-04-06T04:24:06;5.97;;;3.67;;
55609;SDS011;41486;52.502;13.486;2023-04-06T04:26:36;8.13;;;4.03;;
55609;SDS011;41486;52.502;13.486;2023-04-06T04:29:06;10.90;;;4.25;;
55609;SDS011;41486;52.502;13.486;2023-04-06T04:31:36;6.07;;;3.55;;
55609;SDS011;41486;52.502;13.486;2023-04-06T04:36:51;6.10;;;4.05;;
55609;SDS011;41486;52.502;13.486;2023-04-06T04:39:29;6.00;;;3.65;;
55609;SDS011;41486;52.502;13.486;2023-04-06T04:42:02;5.28;;;3.55;;
55609;SDS011;41486;52.502;13.486;2023-04-06T04:44:32;6.22;;;3.47;;
55609;SDS011;41486;52.502;13.486;2023-04-06T04:47:00;6.38;;;4.53;;
55609;SDS011;41486;52.502;13.486;2023-04-06T04:49:39;5.07;;;3.60;;
55609;SDS011;41486;52.502;13.486;2023-04-06T04:52:08;5.43;;;3.38;;
55609;SDS011;41486;52.502;13.486;2023-04-06T04:54:51;7.13;;;3.13;;
55609;SDS011;41486;52.502;13.486;2023-04-06T04:57:24;5.38;;;3.40;;
55609;SDS011;41486;52.502;13.486;2023-04-06T04:59:52;12.77;;;4.35;;
55609;SDS011;41486;52.502;13.486;2023-04-06T05:02:23;7.82;;;4.03;;
55609;SDS011;41486;52.502;13.486;2023-04-06T05:05:27;7.18;;;3.65;;
55609;SDS011;41486;52.502;13.486;2023-04-06T05:07:57;6.72;;;4.15;;
55609;SDS011;41486;52.502;13.486;2023-04-06T05:10:38;6.30;;;4.13;;
55609;SDS011;41486;52.502;13.486;2023-04-06T05:13:07;6.85;;;4.13;;
55609;SDS011;41486;52.502;13.486;2023-04-06T05:15:36;8.27;;;4.13;;
55609;SDS011;41486;52.502;13.486;2023-04-06T05:18:18;7.13;;;3.78;;
55609;SDS011;41486;52.502;13.486;2023-04-06T05:20:46;5.07;;;4.15;;
55609;SDS011;41486;52.502;13.486;2023-04-06T05:23:16;5.20;;;3.30;;
55609;SDS011;41486;52.502;13.486;2023-04-06T05:25:44;4.22;;;3.78;;
55609;SDS011;41486;52.502;13.486;2023-04-06T05:28:17;5.75;;;3.42;;
55609;SDS011;41486;52.502;13.486;2023-04-06T05:30:45;9.48;;;4.20;;
55609;SDS011;41486;52.502;13.486;2023-04-06T05:33:14;7.28;;;3.67;;
55609;SDS011;41486;52.502;13.486;2023-04-06T05:36:01;6.13;;;3.30;;
55609;SDS011;41486;52.502;13.486;2023-04-06T05:38:31;6.47;;;3.47;;
55609;SDS011;41486;52.502;13.486;2023-04-06T05:41:08;6.78;;;4.07;;
55609;SDS011;41486;52.502;13.486;2023-04-06T05:43:39;6.47;;;4.25;;
55609;SDS011;41486;52.502;13.486;2023-04-06T05:46:07;6.35;;;4.10;;
55609;SDS011;41486;52.502;13.486;2023-04-06T05:48:38;12.60;;;4.55;;
55609;SDS011;41486;52.502;13.486;2023-04-06T05:51:08;4.53;;;3.55;;
55609;SDS011;41486;52.502;13.486;2023-04-06T05:53:44;4.43;;;3.30;;
55609;SDS011;41486;52.502;13.486;2023-04-06T05:56:12;5.20;;;3.90;;
55609;SDS011;41486;52.502;13.486;2023-04-06T05:58:40;4.32;;;3.45;;
55609;SDS011;41486;52.502;13.486;2023-04-06T06:01:11;7.00;;;3.45;;
55609;SDS011;41486;52.502;13.486;2023-04-06T06:03:43;6.30;;;4.30;;
55609;SDS011;41486;52.502;13.486;2023-04-06T06:06:12;4.35;;;3.40;;
55609;SDS011;41486;52.502;13.486;2023-04-06T06:09:10;6.43;;;3.38;;
55609;SDS011;41486;52.502;13.486;2023-04-06T06:11:44;5.47;;;4.05;;
55609;SDS011;41486;52.502;13.486;2023-04-06T06:14:15;6.03;;;3.53;;
55609;SDS011;41486;52.502;13.486;2023-04-06T06:16:44;5.35;;;3.95;;
55609;SDS011;41486;52.502;13.486;2023-04-06T06:19:14;5.18;;;3.38;;
55609;SDS011;41486;52.502;13.486;2023-04-06T06:21:43;4.72;;;3.22;;
55609;SDS011;41486;52.502;13.486;2023-04-06T06:24:13;4.80;;;3.35;;
55609;SDS011;41486;52.502;13.486;2023-04-06T06:26:41;8.27;;;3.92;;
55609;SDS011;41486;52.502;13.486;2023-04-06T06:29:11;9.70;;;3.35;;
55609;SDS011;41486;52.502;13.486;2023-04-06T06:31:40;4.20;;;3.63;;
55609;SDS011;41486;52.502;13.486;2023-04-06T06:34:08;5.53;;;3.70;;
55609;SDS011;41486;52.502;13.486;2023-04-06T06:36:36;5.07;;;3.65;;
55609;SDS011;41486;52.502;13.486;2023-04-06T06:39:07;3.95;;;3.25;;
55609;SDS011;41486;52.502;13.486;2023-04-06T06:41:38;5.45;;;3.53;;
55609;SDS011;41486;52.502;13.486;2023-04-06T06:44:06;8.13;;;4.00;;
55609;SDS011;41486;52.502;13.486;2023-04-06T06:46:35;4.93;;;3.80;;
55609;SDS011;41486;52.502;13.486;2023-04-06T06:49:05;6.53;;;3.88;;
55609;SDS011;41486;52.502;13.486;2023-04-06T06:51:33;14.00;;;4.03;;
55609;SDS011;41486;52.502;13.486;2023-04-06T06:54:01;6.53;;;4.07;;
55609;SDS011;41486;52.502;13.486;2023-04-06T06:56:29;6.05;;;3.75;;
55609;SDS011;41486;52.502;13.486;2023-04-06T06:59:01;5.00;;;2.95;;
55609;SDS011;41486;52.502;13.486;2023-04-06T07:01:36;5.32;;;3.55;;
55609;SDS011;41486;52.502;13.486;2023-04-06T07:04:08;9.45;;;3.78;;
55609;SDS011;41486;52.502;13.486;2023-04-06T07:06:36;6.28;;;3.35;;
55609;SDS011;41486;52.502;13.486;2023-04-06T07:09:06;5.80;;;3.38;;
55609;SDS011;41486;52.502;13.486;2023-04-06T07:11:34;3.55;;;2.60;;
55609;SDS011;41486;52.502;13.486;2023-04-06T07:14:03;4.15;;;3.20;;
55609;SDS011;41486;52.502;13.486;2023-04-06T07:16:32;10.18;;;3.88;;
55609;SDS011;41486;52.502;13.486;2023-04-06T07:19:01;8.05;;;2.92;;
55609;SDS011;41486;52.502;13.486;2023-04-06T07:21:29;4.00;;;2.60;;
55609;SDS011;41486;52.502;13.486;2023-04-06T07:23:57;5.85;;;3.35;;
55609;SDS011;41486;52.502;13.486;2023-04-06T07:26:25;3.90;;;2.88;;
55609;SDS011;41486;52.502;13.486;2023-04-06T07:28:53;5.20;;;3.05;;
55609;SDS011;41486;52.502;13.486;2023-04-06T07:31:24;5.00;;;2.88;;
55609;SDS011;41486;52.502;13.486;2023-04-06T07:33:53;7.13;;;3.08;;
55609;SDS011;41486;52.502;13.486;2023-04-06T07:36:21;6.13;;;3.45;;
55609;SDS011;41486;52.502;13.486;2023-04-06T07:38:54;6.63;;;4.18;;
55609;SDS011;41486;52.502;13.486;2023-04-06T07:41:22;10.85;;;5.78;;
55609;SDS011;41486;52.502;13.486;2023-04-06T07:43:52;9.43;;;5.40;;
55609;SDS011;41486;52.502;13.486;2023-04-06T07:46:20;10.82;;;5.68;;
55609;SDS011;41486;52.502;13.486;2023-04-06T07:48:50;10.73;;;5.18;;
55609;SDS011;41486;52.502;13.486;2023-04-06T07:51:18;10.35;;;4.22;;
55609;SDS011;41486;52.502;13.486;2023-04-06T07:53:47;8.35;;;3.92;;
55609;SDS011;41486;52.502;13.486;2023-04-06T07:56:15;6.70;;;3.60;;
55609;SDS011;41486;52.502;13.486;2023-04-06T07:58:43;4.13;;;2.20;;
55609;SDS011;41486;52.502;13.486;2023-04-06T08:01:11;3.13;;;2.17;;
55609;SDS011;41486;52.502;13.486;2023-04-06T08:03:39;3.58;;;2.63;;
55609;SDS011;41486;52.502;13.486;2023-04-06T08:06:09;5.50;;;2.00;;
55609;SDS011;41486;52.502;13.486;2023-04-06T08:08:37;3.30;;;2.10;;
55609;SDS011;41486;52.502;13.486;2023-04-06T08:11:05;2.22;;;1.63;;
55609;SDS011;41486;52.502;13.486;2023-04-06T08:13:34;3.60;;;1.70;;
55609;SDS011;41486;52.502;13.486;2023-04-06T08:16:02;2.75;;;1.85;;
55609;SDS011;41486;52.502;13.486;2023-04-06T08:18:31;3.67;;;1.52;;
55609;SDS011;41486;52.502;13.486;2023-04-06T08:20:59;2.13;;;1.55;;
55609;SDS011;41486;52.502;13.486;2023-04-06T08:23:31;3.40;;;1.75;;
55609;SDS011;41486;52.502;13.486;2023-04-06T08:25:59;3.55;;;2.35;;
55609;SDS011;41486;52.502;13.486;2023-04-06T08:28:27;5.30;;;3.17;;
55609;SDS011;41486;52.502;13.486;2023-04-06T08:30:56;5.03;;;2.28;;
55609;SDS011;41486;52.502;13.486;2023-04-06T08:33:24;2.50;;;1.98;;
55609;SDS011;41486;52.502;13.486;2023-04-06T08:35:52;5.20;;;1.92;;
55609;SDS011;41486;52.502;13.486;2023-04-06T08:38:20;2.10;;;1.52;;
55609;SDS011;41486;52.502;13.486;2023-04-06T08:40:49;3.17;;;1.55;;
55609;SDS011;41486;52.502;13.486;2023-04-06T08:43:18;2.63;;;2.05;;
55609;SDS011;41486;52.502;13.486;2023-04-06T08:45:49;2.83;;;1.52;;
55609;SDS011;41486;52.502;13.486;2023-04-06T08:48:17;2.80;;;1.60;;
55609;SDS011;41486;52.502;13.486;2023-04-06T08:50:46;3.42;;;1.60;;
55609;SDS011;41486;52.502;13.486;2023-04-06T08:53:14;4.18;;;1.63;;
55609;SDS011;41486;52.502;13.486;2023-04-06T08:55:43;5.43;;;2.00;;
55609;SDS011;41486;52.502;13.486;2023-04-06T08:58:14;2.10;;;1.50;;
55609;SDS011;41486;52.502;13.486;2023-04-06T09:00:56;2.60;;;1.33;;
55609;SDS011;41486;52.502;13.486;2023-04-06T09:03:26;1.67;;;1.55;;
55609;SDS011;41486;52.502;13.486;2023-04-06T09:05:57;3.53;;;1.90;;
55609;SDS011;41486;52.502;13.486;2023-04-06T09:08:26;1.42;;;1.20;;
55609;SDS011;41486;52.502;13.486;2023-04-06T09:10:54;6.78;;;1.30;;
55609;SDS011;41486;52.502;13.486;2023-04-06T09:13:25;1.75;;;1.20;;
55609;SDS011;41486;52.502;13.486;2023-04-06T09:16:00;2.88;;;1.55;;
55609;SDS011;41486;52.502;13.486;2023-04-06T09:18:29;2.75;;;1.48;;
55609;SDS011;41486;52.502;13.486;2023-04-06T09:20:59;3.63;;;2.13;;
55609;SDS011;41486;52.502;13.486;2023-04-06T09:23:28;2.55;;;1.35;;
55609;SDS011;41486;52.502;13.486;2023-04-06T09:26:04;5.18;;;1.80;;
55609;SDS011;41486;52.502;13.486;2023-04-06T09:28:47;2.95;;;1.38;;
55609;SDS011;41486;52.502;13.486;2023-04-06T09:31:20;4.90;;;1.70;;
55609;SDS011;41486;52.502;13.486;2023-04-06T09:33:50;1.30;;;0.98;;
55609;SDS011;41486;52.502;13.486;2023-04-06T09:36:19;2.75;;;1.42;;
55609;SDS011;41486;52.502;13.486;2023-04-06T09:38:57;1.80;;;1.30;;
55609;SDS011;41486;52.502;13.486;2023-04-06T09:41:27;1.33;;;0.98;;
55609;SDS011;41486;52.502;13.486;2023-04-06T09:44:03;2.67;;;1.42;;
55609;SDS011;41486;52.502;13.486;2023-04-06T09:46:33;3.25;;;1.27;;
55609;SDS011;41486;52.502;13.486;2023-04-06T09:49:22;2.67;;;1.20;;
55609;SDS011;41486;52.502;13.486;2023-04-06T09:51:53;2.22;;;1.10;;
55609;SDS011;41486;52.502;13.486;2023-04-06T09:54:24;1.38;;;1.13;;
55609;SDS011;41486;52.502;13.486;2023-04-06T09:56:58;2.55;;;1.05;;
55609;SDS011;41486;52.502;13.486;2023-04-06T09:59:31;1.25;;;1.00;;
55609;SDS011;41486;52.502;13.486;2023-04-06T10:02:08;3.75;;;1.35;;
55609;SDS011;41486;52.502;13.486;2023-04-06T10:04:43;2.45;;;1.25;;
55609;SDS011;41486;52.502;13.486;2023-04-06T10:09:46;1.80;;;1.20;;
55609;SDS011;41486;52.502;13.486;2023-04-06T10:12:14;2.70;;;1.58;;
55609;SDS011;41486;52.502;13.486;2023-04-06T10:14:45;4.03;;;1.33;;
55609;SDS011;41486;52.502;13.486;2023-04-06T10:17:13;2.58;;;1.55;;
55609;SDS011;41486;52.502;13.486;2023-04-06T10:19:43;1.95;;;1.10;;
55609;SDS011;41486;52.502;13.486;2023-04-06T10:22:18;1.17;;;0.80;;
55609;SDS011;41486;52.502;13.486;2023-04-06T10:24:52;1.63;;;1.05;;
55609;SDS011;41486;52.502;13.486;2023-04-06T10:27:27;1.58;;;0.90;;
55609;SDS011;41486;52.502;13.486;2023-04-06T10:30:02;2.17;;;1.52;;
55609;SDS011;41486;52.502;13.486;2023-04-06T10:32:32;1.50;;;1.17;;
55609;SDS011;41486;52.502;13.486;2023-04-06T10:35:08;1.38;;;1.10;;
55609;SDS011;41486;52.502;13.486;2023-04-06T10:37:46;2.25;;;0.98;;
55609;SDS011;41486;52.502;13.486;2023-04-06T10:40:19;1.08;;;0.93;;
55609;SDS011;41486;52.502;13.486;2023-04-06T10:42:49;1.88;;;1.25;;
55609;SDS011;41486;52.502;13.486;2023-04-06T10:45:22;1.95;;;1.00;;
55609;SDS011;41486;52.502;13.486;2023-04-06T10:47:52;3.50;;;1.02;;
55609;SDS011;41486;52.502;13.486;2023-04-06T10:50:21;6.22;;;1.13;;
55609;SDS011;41486;52.502;13.486;2023-04-06T10:52:58;2.70;;;0.93;;
55609;SDS011;41486;52.502;13.486;2023-04-06T10:55:27;2.20;;;1.50;;
55609;SDS011;41486;52.502;13.486;2023-04-06T10:57:57;2.20;;;1.17;;
55609;SDS011;41486;52.502;13.486;2023-04-06T11:00:26;1.85;;;1.10;;
55609;SDS011;41486;52.502;13.486;2023-04-06T11:03:12;2.03;;;1.10;;
55609;SDS011;41486;52.502;13.486;2023-04-06T11:05:43;3.03;;;1.35;;
55609;SDS011;41486;52.502;13.486;2023-04-06T11:08:24;2.10;;;1.20;;
55609;SDS011;41486;52.502;13.486;2023-04-06T11:11:03;3.38;;;1.25;;
55609;SDS011;41486;52.502;13.486;2023-04-06T11:13:40;1.42;;;1.00;;
55609;SDS011;41486;52.502;13.486;2023-04-06T11:16:14;2.20;;;1.40;;
55609;SDS011;41486;52.502;13.486;2023-04-06T11:18:46;7.00;;;1.45;;
55609;SDS011;41486;52.502;13.486;2023-04-06T11:21:18;2.97;;;1.60;;
55609;SDS011;41486;52.502;13.486;2023-04-06T11:23:47;7.97;;;1.70;;
55609;SDS011;41486;52.502;13.486;2023-04-06T11:26:15;1.58;;;0.98;;
55609;SDS011;41486;52.502;13.486;2023-04-06T11:28:46;1.77;;;1.20;;
55609;SDS011;41486;52.502;13.486;2023-04-06T11:31:16;3.15;;;1.38;;
55609;SDS011;41486;52.502;13.486;2023-04-06T11:33:45;3.92;;;1.30;;
55609;SDS011;41486;52.502;13.486;2023-04-06T11:36:13;1.75;;;1.40;;
55609;SDS011;41486;52.502;13.486;2023-04-06T11:38:42;2.35;;;1.60;;
55609;SDS011;41486;52.502;13.486;2023-04-06T11:41:10;2.47;;;1.42;;
55609;SDS011;41486;52.502;13.486;2023-04-06T11:43:38;2.08;;;1.20;;
55609;SDS011;41486;52.502;13.486;2023-04-06T11:46:18;2.25;;;1.30;;
55609;SDS011;41486;52.502;13.486;2023-04-06T11:48:46;3.53;;;1.33;;
55609;SDS011;41486;52.502;13.486;2023-04-06T11:51:21;3.40;;;1.30;;
55609;SDS011;41486;52.502;13.486;2023-04-06T11:53:50;2.45;;;1.05;;
55609;SDS011;41486;52.502;13.486;2023-04-06T11:56:27;2.30;;;1.25;;
55609;SDS011;41486;52.502;13.486;2023-04-06T11:58:56;1.80;;;1.23;;
55609;SDS011;41486;52.502;13.486;2023-04-06T12:01:28;2.88;;;1.40;;
55609;SDS011;41486;52.502;13.486;2023-04-06T12:04:02;6.38;;;1.90;;
55609;SDS011;41486;52.502;13.486;2023-04-06T12:06:30;2.00;;;1.38;;
55609;SDS011;41486;52.502;13.486;2023-04-06T12:08:58;4.55;;;1.10;;
55609;SDS011;41486;52.502;13.486;2023-04-06T12:11:26;1.70;;;1.20;;
55609;SDS011;41486;52.502;13.486;2023-04-06T12:13:54;1.95;;;1.35;;
55609;SDS011;41486;52.502;13.486;2023-04-06T12:16:22;1.42;;;1.30;;
55609;SDS011;41486;52.502;13.486;2023-04-06T12:18:52;2.10;;;1.40;;
55609;SDS011;41486;52.502;13.486;2023-04-06T12:21:20;2.47;;;1.23;;
55609;SDS011;41486;52.502;13.486;2023-04-06T12:23:48;1.10;;;1.00;;
55609;SDS011;41486;52.502;13.486;2023-04-06T12:26:16;2.13;;;1.67;;
55609;SDS011;41486;52.502;13.486;2023-04-06T12:28:44;3.17;;;1.63;;
55609;SDS011;41486;52.502;13.486;2023-04-06T12:31:15;1.98;;;1.50;;
55609;SDS011;41486;52.502;13.486;2023-04-06T12:33:46;3.15;;;1.30;;
55609;SDS011;41486;52.502;13.486;2023-04-06T12:36:16;1.60;;;1.33;;
55609;SDS011;41486;52.502;13.486;2023-04-06T12:38:46;2.10;;;1.23;;
55609;SDS011;41486;52.502;13.486;2023-04-06T12:41:15;2.85;;;1.40;;
55609;SDS011;41486;52.502;13.486;2023-04-06T12:43:43;1.40;;;1.20;;
55609;SDS011;41486;52.502;13.486;2023-04-06T12:46:12;1.25;;;1.15;;
55609;SDS011;41486;52.502;13.486;2023-04-06T12:48:40;2.15;;;1.23;;
55609;SDS011;41486;52.502;13.486;2023-04-06T12:51:09;1.80;;;1.17;;
55609;SDS011;41486;52.502;13.486;2023-04-06T12:53:38;1.70;;;1.08;;
55609;SDS011;41486;52.502;13.486;2023-04-06T12:56:16;1.65;;;0.93;;
55609;SDS011;41486;52.502;13.486;2023-04-06T12:58:44;2.10;;;1.08;;
55609;SDS011;41486;52.502;13.486;2023-04-06T13:01:12;1.23;;;1.00;;
55609;SDS011;41486;52.502;13.486;2023-04-06T13:03:41;2.50;;;1.30;;
55609;SDS011;41486;52.502;13.486;2023-04-06T13:06:09;1.88;;;1.30;;
55609;SDS011;41486;52.502;13.486;2023-04-06T13:08:40;2.72;;;1.17;;
55609;SDS011;41486;52.502;13.486;2023-04-06T13:11:11;2.85;;;1.20;;
55609;SDS011;41486;52.502;13.486;2023-04-06T13:13:39;1.60;;;1.27;;
55609;SDS011;41486;52.502;13.486;2023-04-06T13:16:08;1.52;;;1.10;;
55609;SDS011;41486;52.502;13.486;2023-04-06T13:18:36;1.90;;;1.10;;
55609;SDS011;41486;52.502;13.486;2023-04-06T13:21:05;2.63;;;1.30;;
55609;SDS011;41486;52.502;13.486;2023-04-06T13:23:34;1.70;;;1.35;;
55609;SDS011;41486;52.502;13.486;2023-04-06T13:26:05;1.95;;;1.05;;
55609;SDS011;41486;52.502;13.486;2023-04-06T13:28:35;1.45;;;1.30;;
55609;SDS011;41486;52.502;13.486;2023-04-06T13:31:05;2.90;;;1.10;;
55609;SDS011;41486;52.502;13.486;2023-04-06T13:33:34;2.08;;;1.25;;
55609;SDS011;41486;52.502;13.486;2023-04-06T13:36:03;1.67;;;1.00;;
55609;SDS011;41486;52.502;13.486;2023-04-06T13:38:34;3.53;;;1.20;;
55609;SDS011;41486;52.502;13.486;2023-04-06T13:41:03;1.75;;;1.20;;
55609;SDS011;41486;52.502;13.486;2023-04-06T13:43:31;2.20;;;1.10;;
55609;SDS011;41486;52.502;13.486;2023-04-06T13:46:00;4.30;;;1.20;;
55609;SDS011;41486;52.502;13.486;2023-04-06T13:48:28;2.67;;;1.20;;
55609;SDS011;41486;52.502;13.486;2023-04-06T13:50:57;2.45;;;1.60;;
55609;SDS011;41486;52.502;13.486;2023-04-06T13:53:25;2.13;;;1.63;;
55609;SDS011;41486;52.502;13.486;2023-04-06T13:55:53;1.70;;;1.25;;
55609;SDS011;41486;52.502;13.486;2023-04-06T13:58:23;2.90;;;1.30;;
55609;SDS011;41486;52.502;13.486;2023-04-06T14:00:51;2.97;;;1.25;;
55609;SDS011;41486;52.502;13.486;2023-04-06T14:03:20;2.55;;;1.08;;
55609;SDS011;41486;52.502;13.486;2023-04-06T14:05:48;2.75;;;1.48;;
55609;SDS011;41486;52.502;13.486;2023-04-06T14:08:17;1.85;;;1.25;;
55609;SDS011;41486;52.502;13.486;2023-04-06T14:10:45;1.92;;;1.17;;
55609;SDS011;41486;52.502;13.486;2023-04-06T14:13:12;1.58;;;1.15;;
55609;SDS011;41486;52.502;13.486;2023-04-06T14:15:43;1.45;;;1.15;;
55609;SDS011;41486;52.502;13.486;2023-04-06T14:18:11;1.58;;;1.20;;
55609;SDS011;41486;52.502;13.486;2023-04-06T14:20:39;1.13;;;0.95;;
55609;SDS011;41486;52.502;13.486;2023-04-06T14:23:06;1.35;;;1.20;;
55609;SDS011;41486;52.502;13.486;2023-04-06T14:25:34;3.20;;;1.38;;
55609;SDS011;41486;52.502;13.486;2023-04-06T14:28:02;1.60;;;1.15;;
55609;SDS011;41486;52.502;13.486;2023-04-06T14:30:30;3.22;;;1.17;;
55609;SDS011;41486;52.502;13.486;2023-04-06T14:33:00;1.52;;;1.13;;
55609;SDS011;41486;52.502;13.486;2023-04-06T14:35:28;2.00;;;1.60;;
55609;SDS011;41486;52.502;13.486;2023-04-06T14:37:58;1.48;;;1.13;;
55609;SDS011;41486;52.502;13.486;2023-04-06T14:40:27;3.53;;;1.40;;
55609;SDS011;41486;52.502;13.486;2023-04-06T14:42:54;1.90;;;1.10;;
55609;SDS011;41486;52.502;13.486;2023-04-06T14:45:22;1.30;;;1.10;;
55609;SDS011;41486;52.502;13.486;2023-04-06T14:47:50;3.28;;;1.42;;
55609;SDS011;41486;52.502;13.486;2023-04-06T14:50:20;2.63;;;1.20;;
55609;SDS011;41486;52.502;13.486;2023-04-06T14:52:48;1.88;;;1.50;;
55609;SDS011;41486;52.502;13.486;2023-04-06T14:55:16;3.10;;;1.50;;
55609;SDS011;41486;52.502;13.486;2023-04-06T14:57:44;1.80;;;1.45;;
55609;SDS011;41486;52.502;13.486;2023-04-06T15:00:12;3.17;;;2.25;;